Rhododendron, Oregon
Current Conditions -  °F | °C
As of 4:53 AM on Saturday 25 Oct 2014 (Local Time) from KTTD Reporting Station
Clear Clear  
Wind Chill: 56°   Ceiling: Unl
Heat Index: 56°   Visibility: 10mi
Dew Point: 48°   Wind: 23mph
Humidity: 75%   Direction: 100°E
Pressure: 29.49"   Gusts: 33mph
Location:  45.33°N, 121.91°W
Report Text: KTTD 251153Z AUTO 10020G29KT 10SM CLR 13/09 A2949 RMK AO2 PK WND 09030/1105 SLP985 7//// T01330089 10139 20133 56043
Loading
Personal Weather Stations






























Interactive Weather Map
Tropical Storm Tracking
New forecast layout! Learn more

10-Day Weather Forecast

Advertisements
Track Severe Weather on mobile